Time;durP1;ratioP1;P1;durP2;ratioP2;P2;SDS_P1;SDS_P2;PMS_P1;PMS_P2;Temp;Humidity;BMP_temperature;BMP_pressure;BME280_temperature;BME280_humidity;BME280_pressure;Samples;Min_cycle;Max_cycle;Signal;HPM_P1;HPM_P2
2023/02/20 00:00:18;;;;;;;7.50;2.50;;;;;;;0.22;63.31;98725.42;107246;1258;60389;-37
2023/02/20 00:02:47;;;;;;;4.80;2.20;;;;;;;0.25;63.29;98722.90;107297;1261;74266;-37
2023/02/20 00:05:18;;;;;;;4.60;2.10;;;;;;;0.25;63.22;98725.08;107235;1260;69614;-36
2023/02/20 00:07:46;;;;;;;3.60;1.80;;;;;;;0.22;63.06;98726.45;107271;1257;73042;-36
2023/02/20 00:10:17;;;;;;;4.80;2.10;;;;;;;0.20;62.91;98731.15;107210;1257;60816;-37
2023/02/20 00:12:55;;;;;;;4.80;2.40;;;;;;;0.18;62.80;98732.50;107217;1258;61250;-37
2023/02/20 00:15:24;;;;;;;6.40;1.80;;;;;;;0.16;62.87;98735.77;107248;1258;75226;-37
2023/02/20 00:17:52;;;;;;;3.70;2.00;;;;;;;0.15;62.91;98732.06;107286;1260;69984;-36
2023/02/20 00:20:23;;;;;;;4.90;2.30;;;;;;;0.13;62.76;98731.55;107279;1258;73929;-36
2023/02/20 00:22:54;;;;;;;3.40;1.90;;;;;;;0.14;62.72;98732.62;107182;1262;62399;-37
2023/02/20 00:25:24;;;;;;;7.50;2.50;;;;;;;0.19;62.72;98731.70;107235;1262;60798;-36
2023/02/20 00:28:00;;;;;;;4.70;1.60;;;;;;;0.19;62.54;98726.80;107259;1257;74979;-37
2023/02/20 00:30:30;;;;;;;;;;;;;;;0.16;62.61;98733.20;107104;1262;71054;-37
2023/02/20 00:32:59;;;;;;;5.20;1.90;;;;;;;0.09;62.79;98725.67;107244;1262;73879;-37
2023/02/20 00:35:28;;;;;;;7.20;2.20;;;;;;;0.03;62.81;98725.25;106491;1262;1002512;-37
2023/02/20 00:38:00;;;;;;;5.30;2.30;;;;;;;0.04;63.11;98722.52;107234;1263;60502;-36
2023/02/20 00:40:29;;;;;;;4.40;2.40;;;;;;;0.01;63.12;98727.04;107136;1258;75124;-37
2023/02/20 00:42:57;;;;;;;5.90;2.00;;;;;;;-0.01;62.98;98726.85;107264;1263;69900;-37
2023/02/20 00:45:27;;;;;;;;;;;;;;;-0.04;63.01;98724.72;107245;1261;73578;-37
2023/02/20 00:47:56;;;;;;;4.30;2.10;;;;;;;-0.05;63.16;98722.02;107272;1256;61915;-37
2023/02/20 00:50:25;;;;;;;5.00;2.20;;;;;;;-0.02;63.09;98726.38;107356;1260;60353;-37
2023/02/20 00:52:53;;;;;;;4.80;2.10;;;;;;;-0.00;62.92;98725.91;107361;1257;75066;-37
2023/02/20 00:55:23;;;;;;;3.20;1.90;;;;;;;-0.03;62.50;98724.55;107334;1260;69715;-38
2023/02/20 00:57:52;;;;;;;5.30;2.20;;;;;;;0.00;62.54;98726.85;107308;1260;73932;-37
2023/02/20 01:00:26;;;;;;;5.30;2.00;;;;;;;0.00;62.30;98724.95;107299;1257;60550;-37
2023/02/20 01:02:55;;;;;;;6.40;2.10;;;;;;;-0.02;62.40;98724.40;107279;1260;61349;-37
2023/02/20 01:05:25;;;;;;;4.50;1.90;;;;;;;-0.02;62.01;98730.44;106581;1257;1003078;-37
2023/02/20 01:07:53;;;;;;;4.80;1.80;;;;;;;-0.04;61.92;98726.00;106566;1258;1003611;-38
2023/02/20 01:10:24;;;;;;;6.30;1.70;;;;;;;-0.07;61.74;98725.96;107365;1257;73907;-37
2023/02/20 01:12:53;;;;;;;4.90;2.00;;;;;;;-0.09;61.97;98727.58;106620;1257;1003001;-38
2023/02/20 01:15:21;;;;;;;5.00;1.90;;;;;;;-0.12;62.13;98724.93;106619;1257;1003378;-36
2023/02/20 01:17:50;;;;;;;3.20;1.80;;;;;;;-0.13;61.82;98728.00;107351;1258;74984;-37
2023/02/20 01:20:18;;;;;;;4.70;2.00;;;;;;;-0.07;61.81;98730.98;107304;1258;69940;-37
2023/02/20 01:22:47;;;;;;;3.20;1.60;;;;;;;-0.04;61.32;98734.48;107325;1258;73865;-37
2023/02/20 01:25:15;;;;;;;3.40;1.80;;;;;;;-0.04;61.18;98734.92;107329;1257;60742;-37
2023/02/20 01:27:44;;;;;;;8.20;2.00;;;;;;;-0.06;60.87;98735.34;107452;1257;60419;-37
2023/02/20 01:30:14;;;;;;;4.30;1.90;;;;;;;-0.08;60.90;98733.20;107357;1258;74732;-37
2023/02/20 01:32:43;;;;;;;4.00;1.70;;;;;;;-0.11;60.94;98736.41;107233;1257;70285;-37
2023/02/20 01:35:13;;;;;;;4.70;2.10;;;;;;;-0.13;60.72;98732.30;107327;1257;72743;-37
2023/02/20 01:37:42;;;;;;;3.50;1.50;;;;;;;-0.19;60.79;98734.38;107291;1257;60796;-38
2023/02/20 01:40:20;;;;;;;6.60;2.00;;;;;;;-0.22;60.80;98738.03;107351;1257;61200;-37
2023/02/20 01:42:49;;;;;;;7.20;1.60;;;;;;;-0.25;60.97;98736.77;107309;1257;74982;-37
2023/02/20 01:45:20;;;;;;;3.20;1.80;;;;;;;-0.27;60.97;98736.77;107338;1258;70035;-37
2023/02/20 01:47:50;;;;;;;5.50;2.40;;;;;;;-0.30;61.08;98736.67;107315;1257;73811;-37
2023/02/20 01:50:34;;;;;;;6.00;1.80;;;;;;;-0.31;60.98;98733.08;107179;1258;60554;-37
2023/02/20 01:53:06;;;;;;;4.40;1.90;;;;;;;-0.34;61.04;98733.61;107354;1257;60947;-37
2023/02/20 01:55:48;;;;;;;5.60;1.90;;;;;;;-0.31;61.18;98737.34;107405;1257;73875;-37
2023/02/20 01:58:21;;;;;;;3.20;1.60;;;;;;;-0.28;61.11;98737.30;107301;1260;70081;-37
2023/02/20 02:00:50;;;;;;;5.20;2.00;;;;;;;-0.28;61.02;98737.05;107297;1260;72561;-37
2023/02/20 02:03:23;;;;;;;3.40;1.80;;;;;;;-0.30;60.68;98739.64;107266;1257;60539;-37
2023/02/20 02:05:53;;;;;;;5.00;2.10;;;;;;;-0.36;60.84;98736.50;107361;1257;61528;-37
2023/02/20 02:08:22;;;;;;;4.30;1.70;;;;;;;-0.34;60.71;98738.83;107354;1257;72847;-37
2023/02/20 02:10:56;;;;;;;3.70;1.50;;;;;;;-0.35;60.96;98740.90;106647;1258;1003440;-37
2023/02/20 02:13:25;;;;;;;4.90;1.80;;;;;;;-0.39;60.89;98735.43;107278;1257;73838;-37
2023/02/20 02:16:24;;;;;;;4.60;1.90;;;;;;;-0.41;60.79;98742.91;107319;1260;60416;-37
2023/02/20 02:19:31;;;;;;;3.10;1.60;;;;;;;-0.46;60.88;98739.38;107213;1257;60511;-37
2023/02/20 02:22:18;;;;;;;3.60;1.70;;;;;;;-0.53;61.23;98741.66;107291;1258;75044;-37
2023/02/20 02:25:25;;;;;;;3.50;1.90;;;;;;;-0.52;61.31;98747.55;106537;1257;1002604;-37
2023/02/20 02:28:17;;;;;;;3.50;1.80;;;;;;;-0.56;61.46;98749.84;107103;1256;72829;-36
2023/02/20 02:31:05;;;;;;;;;;;;;;;-0.57;61.63;98745.13;107283;1257;62298;-36
2023/02/20 02:34:09;;;;;;;5.30;2.20;;;;;;;-0.60;61.45;98748.06;107323;1260;61317;-37
2023/02/20 02:36:43;;;;;;;3.80;1.80;;;;;;;-0.60;61.49;98751.16;107253;1257;75055;-37
2023/02/20 02:39:33;;;;;;;3.10;1.50;;;;;;;-0.61;61.11;98750.34;107331;1256;69734;-37
2023/02/20 02:42:37;;;;;;;5.50;1.70;;;;;;;-0.60;61.17;98753.13;107314;1257;73731;-36
2023/02/20 02:45:45;;;;;;;3.80;1.60;;;;;;;-0.63;60.92;98760.75;107066;1257;60546;-37
2023/02/20 02:48:19;;;;;;;3.40;1.70;;;;;;;-0.66;61.02;98760.66;107299;1257;61602;-37
2023/02/20 02:50:47;;;;;;;5.50;1.80;;;;;;;-0.70;60.95;98757.98;107257;1257;75136;-37
2023/02/20 02:53:16;;;;;;;4.70;1.60;;;;;;;-0.72;60.85;98752.55;107259;1257;69003;-36
2023/02/20 02:55:45;;;;;;;3.90;1.50;;;;;;;-0.72;60.97;98751.90;106404;1257;1003082;-37
2023/02/20 02:58:15;;;;;;;2.90;1.60;;;;;;;-0.73;60.87;98749.26;107221;1260;60774;-37
2023/02/20 03:00:54;;;;;;;5.40;1.90;;;;;;;-0.75;60.79;98746.55;107185;1257;61689;-38
2023/02/20 03:03:31;;;;;;;6.80;1.50;;;;;;;-0.77;60.67;98746.91;107181;1257;75042;-38
2023/02/20 03:06:11;;;;;;;2.00;1.40;;;;;;;-0.79;60.67;98751.30;107271;1258;69459;-38
2023/02/20 03:08:42;;;;;;;4.10;1.60;;;;;;;-0.80;60.51;98751.35;107269;1257;72547;-38
2023/02/20 03:11:20;;;;;;;4.40;1.40;;;;;;;-0.82;60.65;98746.27;107127;1257;60780;-37
2023/02/20 03:17:17;;;;;;;2.40;1.30;;;;;;;-0.85;60.59;98744.95;107204;1257;74805;-36
2023/02/20 03:19:50;;;;;;;2.50;1.50;;;;;;;-0.85;60.72;98748.30;107062;1258;69800;-36
2023/02/20 03:22:41;;;;;;;3.40;1.70;;;;;;;-0.86;60.64;98737.21;107250;1260;72804;-36
2023/02/20 03:25:18;;;;;;;2.80;1.20;;;;;;;-0.81;60.66;98747.05;107211;1257;60554;-37
2023/02/20 03:28:10;;;;;;;3.80;1.50;;;;;;;-0.86;60.61;98742.94;107178;1258;60508;-36
2023/02/20 03:30:55;;;;;;;3.60;1.50;;;;;;;-0.87;60.62;98744.15;107197;1257;74138;-37
2023/02/20 03:45:01;;;;;;;3.50;1.70;;;;;;;-1.04;61.44;98746.64;107184;1257;74699;-37
2023/02/20 03:47:29;;;;;;;6.30;1.80;;;;;;;-1.06;61.38;98747.22;107170;1257;69626;-37
2023/02/20 03:52:46;;;;;;;3.80;1.80;;;;;;;-0.94;61.57;98742.38;107150;1257;60460;-37
2023/02/20 03:55:16;;;;;;;3.40;1.40;;;;;;;-0.94;61.53;98751.01;107121;1258;60854;-37
2023/02/20 03:57:48;;;;;;;4.60;1.80;;;;;;;-0.94;61.61;98747.70;107081;1257;73110;-37
2023/02/20 04:00:19;;;;;;;4.40;1.90;;;;;;;-0.97;61.52;98748.04;107108;1257;69966;-37
2023/02/20 04:02:53;;;;;;;3.30;1.70;;;;;;;-1.01;61.80;98744.12;107190;1257;72620;-37
2023/02/20 04:05:26;;;;;;;3.90;1.80;;;;;;;-1.04;61.69;98746.59;107245;1257;60512;-37
2023/02/20 04:08:17;;;;;;;3.80;1.90;;;;;;;-1.06;61.84;98748.13;107181;1257;61547;-37
2023/02/20 04:10:56;;;;;;;4.20;1.80;;;;;;;-1.09;61.88;98739.63;107175;1257;75086;-37
2023/02/20 04:13:25;;;;;;;4.30;1.60;;;;;;;-1.12;62.14;98744.50;107233;1257;69839;-37
2023/02/20 04:15:53;;;;;;;5.20;1.80;;;;;;;-1.10;62.06;98738.89;107138;1257;73899;-37
2023/02/20 04:18:23;;;;;;;3.60;1.90;;;;;;;-1.08;62.13;98739.54;107299;1258;60517;-37
2023/02/20 04:20:52;;;;;;;3.20;1.60;;;;;;;-1.08;62.09;98741.51;107187;1262;60357;-36
2023/02/20 04:23:28;;;;;;;3.20;1.70;;;;;;;-1.10;62.17;98736.23;107108;1257;74710;-36
2023/02/20 04:26:04;;;;;;;4.70;1.60;;;;;;;-1.13;62.12;98734.80;107060;1257;69979;-36
2023/02/20 04:28:33;;;;;;;3.80;1.70;;;;;;;-1.15;62.25;98732.98;107227;1257;73903;-37
2023/02/20 04:31:03;;;;;;;6.80;1.70;;;;;;;-1.19;62.30;98733.07;107223;1258;61019;-37
2023/02/20 04:33:33;;;;;;;2.60;1.60;;;;;;;-1.21;62.47;98736.98;107224;1258;61274;-37
2023/02/20 04:36:06;;;;;;;3.50;1.50;;;;;;;-1.23;62.45;98735.50;107152;1257;74708;-37
2023/02/20 04:38:34;;;;;;;;;;;;;;;-1.21;62.46;98733.17;107208;1257;69986;-37
2023/02/20 04:41:04;;;;;;;;;;;;;;;-1.22;62.39;98737.30;107182;1256;73790;-37
2023/02/20 04:43:35;;;;;;;4.70;1.40;;;;;;;-1.32;62.75;98734.73;107142;1257;60848;-37
2023/02/20 04:46:07;;;;;;;3.80;1.90;;;;;;;-1.34;62.71;98733.05;107166;1258;61511;-37
2023/02/20 04:48:36;;;;;;;3.20;1.60;;;;;;;-1.31;62.45;98727.73;107294;1257;74525;-37
2023/02/20 04:51:07;;;;;;;3.80;1.60;;;;;;;-1.30;62.63;98736.11;107199;1258;68544;-37
2023/02/20 04:53:35;;;;;;;2.80;1.40;;;;;;;-1.35;62.39;98725.73;107160;1256;73844;-37
2023/02/20 04:56:05;;;;;;;5.00;1.70;;;;;;;-1.33;62.27;98733.50;107072;1258;60780;-37
2023/02/20 04:58:36;;;;;;;3.60;1.40;;;;;;;-1.33;62.12;98735.15;107183;1256;61601;-37
2023/02/20 05:01:16;;;;;;;2.70;1.50;;;;;;;-1.32;62.16;98738.10;105673;1257;1004101;-37
2023/02/20 05:03:44;;;;;;;3.40;1.70;;;;;;;-1.25;62.06;98748.19;107205;1257;69963;-38
2023/02/20 05:06:13;;;;;;;3.50;1.70;;;;;;;-1.23;61.79;98744.64;107211;1257;73658;-38
2023/02/20 05:08:42;;;;;;;3.60;1.80;;;;;;;-1.23;61.77;98743.89;107217;1257;60764;-37
2023/02/20 05:11:10;;;;;;;3.80;1.50;;;;;;;-1.25;61.81;98743.36;107235;1257;61553;-37
2023/02/20 05:13:39;;;;;;;4.60;1.90;;;;;;;-1.26;61.62;98756.30;107208;1257;75024;-37
2023/02/20 05:16:07;;;;;;;8.90;2.10;;;;;;;-1.27;61.42;98753.17;107222;1257;69892;-38
2023/02/20 05:18:36;;;;;;;4.00;1.50;;;;;;;-1.26;61.48;98754.80;107216;1257;73544;-37
2023/02/20 05:23:52;;;;;;;3.50;1.60;;;;;;;-1.24;61.36;98753.55;107228;1256;61388;-37
2023/02/20 05:26:20;;;;;;;4.10;1.90;;;;;;;-1.25;61.32;98758.73;107252;1257;75068;-37
2023/02/20 05:28:49;;;;;;;4.10;1.60;;;;;;;-1.25;61.46;98752.57;107115;1257;69936;-37
2023/02/20 05:31:18;;;;;;;3.50;1.60;;;;;;;-1.21;61.34;98755.52;107101;1256;73655;-37
2023/02/20 05:33:47;;;;;;;7.20;1.70;;;;;;;-1.17;61.28;98759.49;107071;1257;60706;-37
2023/02/20 05:36:16;;;;;;;3.70;1.50;;;;;;;-1.14;61.08;98764.66;107102;1257;61609;-38
2023/02/20 05:38:48;;;;;;;2.60;1.30;;;;;;;-1.11;60.98;98758.96;107125;1260;75078;-38
2023/02/20 05:41:17;;;;;;;2.50;1.50;;;;;;;-1.10;60.92;98762.98;107087;1257;69631;-37
2023/02/20 05:43:47;;;;;;;4.50;1.50;;;;;;;-1.09;60.80;98758.34;107242;1257;71399;-38
2023/02/20 05:46:15;;;;;;;6.80;2.20;;;;;;;-1.08;60.77;98766.23;107134;1258;60300;-37
2023/02/20 05:48:49;;;;;;;6.90;2.00;;;;;;;-1.07;60.86;98765.89;107113;1257;60399;-37
2023/02/20 05:51:22;;;;;;;7.20;1.70;;;;;;;-1.07;60.69;98764.09;107107;1257;74249;-37
2023/02/20 05:53:50;;;;;;;4.20;1.50;;;;;;;-1.04;60.67;98772.88;107109;1257;69603;-36
2023/02/20 05:56:19;;;;;;;2.50;1.50;;;;;;;-1.02;60.75;98773.67;107128;1257;73728;-37
2023/02/20 05:58:48;;;;;;;6.90;1.90;;;;;;;-1.00;60.50;98777.67;106469;1257;1003358;-37
2023/02/20 06:01:21;;;;;;;5.50;1.90;;;;;;;-0.99;60.58;98776.54;107216;1257;61506;-37
2023/02/20 06:03:50;;;;;;;3.60;1.70;;;;;;;-0.97;60.60;98773.89;107171;1257;75093;-37
2023/02/20 06:06:19;;;;;;;3.10;1.20;;;;;;;-0.94;60.82;98771.48;107214;1257;69947;-37
2023/02/20 06:08:47;;;;;;;4.10;1.70;;;;;;;-0.85;60.50;98767.14;107264;1257;73892;-37
2023/02/20 06:11:16;;;;;;;4.20;1.40;;;;;;;-0.76;59.99;98771.80;107239;1257;60697;-37
2023/02/20 06:13:45;;;;;;;5.70;1.90;;;;;;;-0.71;59.71;98775.52;106436;1257;1003059;-37
2023/02/20 06:16:23;;;;;;;6.70;1.70;;;;;;;-0.67;59.15;98780.91;107242;1260;75068;-37
2023/02/20 06:18:53;;;;;;;4.30;1.30;;;;;;;-0.61;59.14;98784.04;106430;1257;1003679;-38
2023/02/20 06:21:23;;;;;;;7.50;1.50;;;;;;;-0.60;59.06;98782.93;107203;1257;73886;-38
2023/02/20 06:23:53;;;;;;;6.70;1.60;;;;;;;-0.57;58.91;98786.33;107229;1258;60420;-36
2023/02/20 06:26:22;;;;;;;4.70;1.50;;;;;;;-0.56;59.05;98785.39;107192;1257;61533;-38
2023/02/20 06:28:53;;;;;;;3.50;1.30;;;;;;;-0.54;59.00;98789.95;107240;1257;74811;-37
2023/02/20 06:31:25;;;;;;;2.70;1.60;;;;;;;-0.53;58.80;98783.85;107206;1257;71024;-37
2023/02/20 06:33:54;;;;;;;4.20;1.70;;;;;;;-0.50;58.94;98791.08;107202;1258;72381;-36
2023/02/20 06:36:29;;;;;;;4.90;2.20;;;;;;;-0.48;58.78;98795.13;107228;1257;60589;-36
2023/02/20 06:38:58;;;;;;;5.70;1.50;;;;;;;-0.46;58.53;98795.41;107263;1259;61288;-37
2023/02/20 06:41:26;;;;;;;5.80;1.50;;;;;;;-0.44;58.37;98797.83;107232;1256;74010;-37
2023/02/20 06:43:55;;;;;;;5.20;1.70;;;;;;;-0.43;58.25;98795.80;107214;1257;69990;-38
2023/02/20 06:46:23;;;;;;;5.20;1.70;;;;;;;-0.39;58.12;98799.16;107251;1257;73798;-37
2023/02/20 06:48:56;;;;;;;7.10;1.60;;;;;;;-0.35;57.85;98790.63;107251;1258;60778;-37
2023/02/20 06:51:29;;;;;;;3.60;1.40;;;;;;;-0.30;58.12;98795.41;107242;1257;60377;-36
2023/02/20 06:53:58;;;;;;;4.40;2.30;;;;;;;-0.25;57.86;98793.29;107238;1257;74939;-37
2023/02/20 06:56:28;;;;;;;6.50;1.60;;;;;;;-0.20;57.59;98798.80;106490;1258;1003314;-38
2023/02/20 06:58:59;;;;;;;5.40;1.70;;;;;;;-0.14;57.75;98806.71;107223;1258;73897;-36
2023/02/20 07:01:29;;;;;;;5.80;2.00;;;;;;;-0.10;57.18;98804.42;107291;1257;60536;-37
2023/02/20 07:03:58;;;;;;;7.30;1.70;;;;;;;-0.03;57.33;98806.67;107230;1257;61161;-38
2023/02/20 07:06:30;;;;;;;4.40;1.60;;;;;;;0.02;57.20;98800.56;106457;1257;1002938;-37
2023/02/20 07:08:58;;;;;;;3.70;1.70;;;;;;;0.08;57.08;98798.35;106504;1257;1002724;-38
2023/02/20 07:11:27;;;;;;;4.60;2.00;;;;;;;0.13;56.86;98797.38;107229;1258;74049;-37
2023/02/20 07:13:57;;;;;;;6.70;1.80;;;;;;;0.17;56.68;98794.92;107209;1257;60551;-38
2023/02/20 07:16:26;;;;;;;5.80;1.80;;;;;;;0.19;56.32;98793.73;107238;1258;61220;-37
2023/02/20 07:18:58;;;;;;;4.00;2.00;;;;;;;0.24;56.77;98801.45;107208;1257;75014;-38
2023/02/20 07:21:26;;;;;;;4.50;1.60;;;;;;;0.30;57.00;98800.20;106551;1257;1002864;-37
2023/02/20 07:23:55;;;;;;;4.00;1.80;;;;;;;0.35;56.45;98801.14;107219;1257;73950;-37
2023/02/20 07:26:25;;;;;;;4.40;1.90;;;;;;;0.39;56.21;98802.95;107205;1258;60827;-37
2023/02/20 07:28:54;;;;;;;5.70;2.30;;;;;;;0.42;56.20;98799.08;107255;1257;60207;-37
2023/02/20 07:31:23;;;;;;;5.20;1.70;;;;;;;0.47;56.22;98799.34;107223;1257;74941;-37
2023/02/20 07:33:52;;;;;;;6.20;2.00;;;;;;;0.51;56.22;98794.75;107218;1257;69849;-37
2023/02/20 07:36:20;;;;;;;7.20;2.30;;;;;;;0.56;56.13;98795.60;107230;1258;73973;-37
2023/02/20 07:38:56;;;;;;;7.40;2.10;;;;;;;0.60;55.57;98793.23;107266;1260;60776;-37
2023/02/20 07:41:28;;;;;;;5.10;1.90;;;;;;;0.66;55.46;98791.15;107288;1258;61629;-37
2023/02/20 07:43:56;;;;;;;6.50;2.30;;;;;;;0.70;55.26;98792.05;107261;1257;73975;-38
2023/02/20 07:46:25;;;;;;;6.00;2.10;;;;;;;0.75;54.76;98788.39;107256;1257;69914;-37
2023/02/20 07:48:54;;;;;;;5.70;2.00;;;;;;;0.82;54.71;98786.82;107258;1258;73171;-37
2023/02/20 07:51:22;;;;;;;5.20;2.30;;;;;;;0.92;54.88;98786.28;107238;1257;60632;-36
2023/02/20 07:53:51;;;;;;;9.30;2.00;;;;;;;1.04;54.77;98782.61;107289;1260;61562;-36
2023/02/20 07:56:20;;;;;;;3.50;2.10;;;;;;;1.18;54.23;98786.16;106502;1257;1003764;-36
2023/02/20 07:58:49;;;;;;;4.00;1.80;;;;;;;1.27;53.58;98779.55;107225;1257;69973;-36
2023/02/20 08:01:18;;;;;;;5.10;2.30;;;;;;;1.44;53.25;98789.74;107223;1258;73951;-36
2023/02/20 08:03:47;;;;;;;5.10;2.10;;;;;;;1.54;52.91;98788.39;107251;1258;60451;-37
2023/02/20 08:06:17;;;;;;;6.70;2.10;;;;;;;1.63;52.39;98790.26;107247;1257;61540;-37
2023/02/20 08:08:47;;;;;;;6.60;2.10;;;;;;;1.73;51.75;98781.98;107220;1258;74544;-38
2023/02/20 08:11:18;;;;;;;9.50;2.20;;;;;;;1.82;52.41;98784.70;107242;1259;69648;-37
2023/02/20 08:16:37;;;;;;;5.40;1.80;;;;;;;2.14;51.83;98766.59;104235;1292;600730;-36
2023/02/20 08:19:06;;;;;;;3.50;1.70;;;;;;;2.28;51.01;98769.20;106647;1266;60765;-36
2023/02/20 08:21:34;;;;;;;4.20;2.00;;;;;;;2.43;51.44;98771.29;106684;1266;59555;-37
2023/02/20 08:24:05;;;;;;;6.70;2.00;;;;;;;2.63;50.86;98770.88;106664;1265;73628;-36
2023/02/20 08:26:34;;;;;;;7.10;2.00;;;;;;;2.73;49.96;98770.93;106722;1267;70032;-36
2023/02/20 08:29:03;;;;;;;5.50;2.00;;;;;;;2.78;49.93;98770.79;106721;1267;73871;-37
2023/02/20 08:31:31;;;;;;;5.70;1.90;;;;;;;2.85;49.75;98773.61;106693;1264;59310;-36
2023/02/20 08:34:00;;;;;;;3.60;1.70;;;;;;;2.96;49.25;98771.60;106889;1264;59382;-37
2023/02/20 08:36:29;;;;;;;6.50;2.20;;;;;;;3.04;48.53;98770.00;106851;1264;73118;-37
2023/02/20 08:38:59;;;;;;;5.00;2.20;;;;;;;3.04;48.29;98771.31;106949;1263;69708;-37
2023/02/20 08:41:27;;;;;;;;;;;;;;;3.02;48.19;98775.44;107056;1260;73721;-37
2023/02/20 08:43:56;;;;;;;4.70;1.90;;;;;;;2.99;48.24;98769.66;107012;1260;60175;-37
2023/02/20 08:46:24;;;;;;;4.40;2.20;;;;;;;2.95;48.37;98775.14;107057;1260;61364;-37
2023/02/20 08:48:53;;;;;;;5.80;2.00;;;;;;;2.96;47.92;98768.02;107048;1262;74145;-37
2023/02/20 08:51:22;;;;;;;4.20;2.00;;;;;;;2.99;48.04;98766.73;107064;1260;70011;-37
2023/02/20 08:53:55;;;;;;;4.60;1.70;;;;;;;3.03;48.28;98768.38;107009;1260;73666;-37
2023/02/20 08:56:23;;;;;;;5.80;2.30;;;;;;;3.12;47.79;98771.04;107009;1261;59817;-37
2023/02/20 08:58:52;;;;;;;7.40;2.10;;;;;;;3.20;47.37;98774.27;107074;1260;61549;-38
2023/02/20 09:01:21;;;;;;;4.80;2.00;;;;;;;3.23;47.29;98763.69;107066;1260;73884;-37
2023/02/20 09:03:50;;;;;;;5.10;1.80;;;;;;;3.28;47.53;98766.23;107076;1260;69737;-37
2023/02/20 09:06:19;;;;;;;4.40;1.90;;;;;;;3.35;47.06;98761.98;106994;1259;73610;-37
2023/02/20 09:08:48;;;;;;;6.10;2.20;;;;;;;3.42;47.21;98766.15;106248;1260;1002892;-37
2023/02/20 09:11:21;;;;;;;5.10;2.00;;;;;;;3.52;46.67;98761.25;106955;1264;61414;-38
2023/02/20 09:13:50;;;;;;;5.30;2.40;;;;;;;3.61;46.68;98752.91;107035;1260;74295;-37
2023/02/20 09:16:20;;;;;;;4.40;2.10;;;;;;;3.74;46.69;98759.77;107048;1260;69964;-37
2023/02/20 09:18:49;;;;;;;3.60;1.70;;;;;;;3.88;45.80;98751.84;107046;1260;73886;-37
2023/02/20 09:21:18;;;;;;;4.90;2.00;;;;;;;3.96;45.52;98751.40;106203;1260;1003049;-38
2023/02/20 09:23:46;;;;;;;4.10;2.00;;;;;;;4.04;45.66;98748.64;107000;1260;61620;-37
2023/02/20 09:26:15;;;;;;;4.20;2.40;;;;;;;4.16;45.29;98752.09;106976;1260;73986;-37
2023/02/20 09:28:44;;;;;;;4.20;2.10;;;;;;;4.25;45.38;98749.51;106989;1264;69950;-37
2023/02/20 09:31:13;;;;;;;3.60;2.00;;;;;;;4.33;45.16;98748.84;106955;1260;73903;-38
2023/02/20 09:33:45;;;;;;;3.90;1.70;;;;;;;4.36;44.73;98739.43;107041;1260;60674;-38
2023/02/20 09:36:18;;;;;;;4.30;1.80;;;;;;;4.32;44.51;98740.86;107031;1260;61537;-38
2023/02/20 09:38:47;;;;;;;5.30;2.20;;;;;;;4.35;45.02;98751.05;107042;1260;74287;-37
2023/02/20 09:41:28;;;;;;;5.60;1.70;;;;;;;4.45;44.84;98750.77;107033;1264;69945;-38
2023/02/20 09:44:03;;;;;;;6.50;2.00;;;;;;;4.54;44.48;98752.14;107021;1260;73885;-38
2023/02/20 09:46:32;;;;;;;4.10;1.90;;;;;;;4.55;44.52;98744.43;107066;1260;60907;-36
2023/02/20 09:49:11;;;;;;;3.50;1.80;;;;;;;4.47;44.63;98732.36;107060;1260;60267;-36
2023/02/20 09:51:43;;;;;;;4.90;2.00;;;;;;;4.37;44.81;98732.41;107090;1260;72862;-36
2023/02/20 09:54:38;;;;;;;5.40;1.90;;;;;;;4.27;45.38;98734.77;106985;1260;69568;-36
2023/02/20 09:57:18;;;;;;;4.80;1.80;;;;;;;4.16;45.12;98730.12;106985;1264;73569;-37
2023/02/20 09:59:53;;;;;;;3.90;1.90;;;;;;;4.10;45.33;98721.48;106973;1260;60784;-37
2023/02/20 10:02:28;;;;;;;5.40;2.10;;;;;;;4.18;45.91;98718.36;106902;1260;61246;-37
2023/02/20 10:05:05;;;;;;;5.20;2.20;;;;;;;4.36;45.35;98718.44;107023;1260;74063;-37
2023/02/20 10:07:36;;;;;;;5.50;2.50;;;;;;;4.56;45.09;98720.77;107098;1260;68537;-37
2023/02/20 10:10:20;;;;;;;5.50;2.60;;;;;;;4.69;44.75;98721.95;107029;1260;71676;-38
2023/02/20 10:12:59;;;;;;;5.60;2.70;;;;;;;4.78;44.63;98717.63;107000;1264;60780;-38
2023/02/20 10:15:33;;;;;;;4.10;2.00;;;;;;;4.81;44.39;98709.83;106983;1260;61550;-38
2023/02/20 10:18:14;;;;;;;7.90;2.50;;;;;;;4.89;44.19;98705.45;107009;1260;73244;-37
2023/02/20 10:20:50;;;;;;;7.80;2.70;;;;;;;4.95;43.73;98708.27;106905;1260;69627;-37
2023/02/20 10:23:40;;;;;;;6.10;2.70;;;;;;;4.86;43.48;98702.61;106865;1260;73783;-37
2023/02/20 10:26:26;;;;;;;7.60;2.60;;;;;;;4.68;43.67;98697.08;107046;1260;60681;-38
2023/02/20 10:28:56;;;;;;;8.60;3.30;;;;;;;4.55;44.29;98685.22;107051;1260;61823;-38
2023/02/20 10:31:39;;;;;;;7.80;3.30;;;;;;;4.55;44.92;98689.16;107078;1260;74199;-37
2023/02/20 10:34:37;;;;;;;8.00;3.00;;;;;;;4.64;44.56;98668.17;106910;1260;70182;-37
2023/02/20 10:37:15;;;;;;;6.50;2.70;;;;;;;4.75;44.28;98666.75;107020;1260;73436;-38
2023/02/20 10:40:16;;;;;;;5.50;2.30;;;;;;;4.85;43.95;98665.83;106937;1260;60411;-38
2023/02/20 10:42:53;;;;;;;6.40;2.10;;;;;;;4.91;43.35;98662.04;106909;1260;61617;-38
2023/02/20 10:45:37;;;;;;;4.40;2.20;;;;;;;4.92;42.80;98666.48;107082;1260;74012;-37
2023/02/20 10:48:09;;;;;;;4.80;2.20;;;;;;;4.93;43.14;98664.91;107065;1260;69899;-37
2023/02/20 10:50:53;;;;;;;6.20;2.20;;;;;;;4.98;43.64;98663.45;107031;1260;72577;-37
2023/02/20 10:53:54;;;;;;;4.90;2.10;;;;;;;5.03;43.41;98660.08;107038;1264;59641;-37
2023/02/20 10:57:04;;;;;;;5.00;2.40;;;;;;;5.01;43.61;98651.52;106977;1260;60873;-37
2023/02/20 10:59:41;;;;;;;7.80;2.90;;;;;;;4.99;43.56;98648.73;106927;1260;73969;-37
2023/02/20 11:02:21;;;;;;;8.70;3.50;;;;;;;4.93;43.71;98640.34;107048;1260;68546;-37
2023/02/20 11:05:21;;;;;;;5.70;2.70;;;;;;;4.75;43.57;98639.36;106977;1260;73810;-36
2023/02/20 11:07:51;;;;;;;6.30;2.70;;;;;;;4.58;44.08;98644.74;106985;1260;60458;-36
2023/02/20 11:10:20;;;;;;;5.90;2.70;;;;;;;4.46;44.22;98642.67;107086;1260;61320;-37
2023/02/20 11:12:50;;;;;;;5.50;2.70;;;;;;;4.33;44.12;98643.75;107072;1260;74242;-37
2023/02/20 11:15:20;;;;;;;6.30;2.60;;;;;;;4.25;44.73;98638.27;106883;1261;69746;-36
2023/02/20 11:17:52;;;;;;;6.70;2.60;;;;;;;4.23;45.24;98639.98;106921;1261;73879;-37
2023/02/20 11:20:44;;;;;;;6.00;2.60;;;;;;;4.26;46.21;98636.17;107029;1266;59660;-38
2023/02/20 11:23:33;;;;;;;5.60;2.70;;;;;;;4.26;46.59;98641.23;107047;1260;59971;-37
2023/02/20 11:26:24;;;;;;;6.20;3.20;;;;;;;4.19;45.92;98642.77;106983;1261;74294;-37
2023/02/20 11:29:01;;;;;;;4.70;2.40;;;;;;;4.06;45.62;98640.17;107020;1261;69203;-38
2023/02/20 11:31:30;;;;;;;6.80;2.40;;;;;;;3.89;44.92;98639.01;107063;1260;72461;-37
2023/02/20 11:33:59;;;;;;;4.20;2.30;;;;;;;3.78;45.44;98641.63;107043;1265;60609;-36
2023/02/20 11:36:30;;;;;;;5.50;2.70;;;;;;;3.70;45.66;98634.30;106870;1260;60451;-36
2023/02/20 11:39:04;;;;;;;4.80;2.50;;;;;;;3.63;46.52;98637.98;107069;1260;74233;-37
2023/02/20 11:41:35;;;;;;;6.90;2.80;;;;;;;3.55;46.90;98637.41;107023;1264;70008;-37
2023/02/20 11:44:05;;;;;;;6.40;2.60;;;;;;;3.44;47.28;98629.90;107045;1264;71636;-37
2023/02/20 11:46:34;;;;;;;4.80;2.80;;;;;;;3.46;47.63;98632.89;107085;1260;60875;-37
2023/02/20 11:49:08;;;;;;;5.60;2.60;;;;;;;3.47;47.80;98632.45;107013;1261;60675;-37
2023/02/20 11:51:45;;;;;;;4.50;2.60;;;;;;;3.46;47.70;98622.88;106999;1263;73061;-37
2023/02/20 11:54:16;;;;;;;5.90;2.30;;;;;;;3.50;48.09;98623.91;107050;1260;70025;-37
2023/02/20 11:57:12;;;;;;;8.00;2.70;;;;;;;3.60;48.23;98623.39;106995;1261;73521;-37
2023/02/20 11:59:42;;;;;;;6.20;2.30;;;;;;;3.71;47.72;98620.56;106963;1261;60803;-37
2023/02/20 12:02:20;;;;;;;5.00;2.60;;;;;;;3.74;47.98;98624.66;106879;1261;60734;-37
2023/02/20 12:05:11;;;;;;;5.60;2.40;;;;;;;3.77;47.08;98620.52;106996;1260;74395;-37
2023/02/20 12:07:50;;;;;;;4.20;2.00;;;;;;;3.76;46.44;98612.24;107005;1260;69914;-37
2023/02/20 12:10:26;;;;;;;2.60;1.70;;;;;;;3.72;46.14;98616.23;107006;1260;73876;-37
2023/02/20 12:12:56;;;;;;;4.90;1.90;;;;;;;3.65;45.95;98607.52;106863;1261;60447;-37
2023/02/20 12:15:27;;;;;;;4.30;2.10;;;;;;;3.60;46.35;98614.59;107030;1260;61526;-37
2023/02/20 12:18:18;;;;;;;3.30;1.90;;;;;;;3.56;46.40;98609.95;107040;1260;74237;-38
2023/02/20 12:20:54;;;;;;;4.00;1.80;;;;;;;3.51;46.50;98603.88;107023;1260;69951;-37